РПИ Новосибирск

Общая информация

Региональный центр Новосибирск (РегЦ Новосибирск) входит в организационно-территориальную структуру дивизиона VATRUS международной сети VATSIM и является оперативным органом единой системы организации воздушного движения дивизиона VATRUS.

РегЦ Новосибирск осуществляет свою деятельность в воздушном пространстве над территориями 6 субъектов Российской Федерации, общая площадь территории которых составляет около 1 млн кв. км. Зона ответственности РегЦ Новосибирск покрывает Республику Алтай, Алтайский край, Новосибирскую, Кемеровскую, Омскую и Томскую области.

Воздушное пространство зоны ответственности РегЦ Новосибирск граничит с районами ОВД Монголии, Республики Казахстан и Китайской Народной Республики. Авиационные магистрали, проходящие через зону ответственности РегЦ Новосибирск, связывают Западную Европу с Юго-Восточной Азией, Северную Америку с Южной Азией.

Общая протяженность воздушных трасс составляет более 40 тысяч километров, в том числе более 130 международных участков с десятью воздушными коридорами на границе сопредельных государств (Казахстан, Китай, Монголия).

В зоне ответственности РегЦ Новосибирск расположены аэродромы таких городов, как Барнаул, Горно-Алтайск, Кемерово, Новокузнецк, Новосибирск, Омск, Стрежевой, Томск.

Коды ВОРЛ (район применения ICAO EUR-G)

Барнаул (Михайловка) 5250-5253, 5260-5264

Горно-Алтайск 5265-5267

Кемерово 5301-5305

Новокузнецк (Спиченково) 5306-5311

Новосибирск (Толмачёво) 5201-5230, 5270-5275

Новосибирск (Ельцовка) 5316-5317

Омск (Центральный) 5440-5461

Стрежевой 5276-5277

Томск (Богашево) 5254-5257, 5312-5315, 5462-5467

РЕЗЕРВ РЦ ЕС ОрВД 5231-5247

Средства связи ОВД

UNNT_CTR - Новосибирск-Контроль - 127.000

Публичные ресурсы РПИ Новосибирск

ВКонтакте - http://vk.com/unnt_fir

Discord - https://discord.gg/ZSNduMxhuM

Контакты администрации РПИ Новосибирск

Fir-unnt@yandex.ru

Лого Новосибирск
Руководство

Mikhail Gogolev

Начальник РегЦ ЕС ОрВД (Новосибирск)

Artem Smychkov

заместитель начальника РегЦ Новосибирск

Kirill Ivanov

начальник ЦПКИВП

Artem Tsendrovsky

начальник пресс-службы
Контакты

Инструкторы РПИ
Aleksey Nevzorov (Instructor)
Artem Smychkov (Instructor)
Kirill Ivanov * (Controller)
Mikhail Gogolev (Instructor)
Mikhail Pompushko * (Senior Student)
Входит в состав
Сибирь

Диспетчеры РПИ

Диспетчер Рейтинг Допуски *
Aleksey Nevzorov Instructor UNNT_CTR
Artem Smychkov Instructor UNNT_CTR
Artem Tsendrovsky Senior Student UNNT_CTR  *, UNNT_APP, UNOO_APP
Karim Garifullin Controller UNNT_CTR
Kirill Ivanov Controller UNNT_CTR
Kirill Shabunin Senior Controller UNNT_CTR
Mikhail Gogolev Instructor UNNT_CTR
Tigran Areian Instructor UNNT_CTR
Alexei Gladilin Student 2 UNNT_R_APP*, UNNT_TWR
Alexey Arkasov Unknown UNNT_GND
Alexey Ginko Student UNNT_GND
Anatoly Margach Student UNNT_GND
Andrey Myagkih Student UNNT_GND
Andrey Zonov Student 2 UNNT_TWR
Anton Gluchenkov Student 2 UNNT_TWR
Arseniy Kucheev Student 2 UNBG_TWR, UNEE_TWR, UNNT_R_APP*, UNNT_TWR, UNOO_TWR, UNWW_TWR
Artem Glinchikov Student UNNT_GND
Artem Yusko Student UNNT_GND
Bogdan Mavrodiev Student UNNT_GND
Boris Yakunin Senior Student UNNT_APP
Daniil Bulavin Student UNNT_GND
Daniil Shirshikov Student UNNT_GND
Darya Krauz Student UNNT_GND
Egor Filippov Student UNNT_GND
Igor Murashkin Student UNNT_GND
Ilia Vasilev Student UNNT_GND
Ilya Efanov Student UNNT_GND
Julia Shtaf Unknown UNNT_GND
Kirill Khan Student UNNT_GND
Kirill Valigun Student 2 UNNT_R_APP*
Konstantin Bednov Student 2 UNNT_R_APP*, UNNT_TWR, UNOO_TWR
Mark Kalashnikov Student UNNT_GND
Matvei Korshunov Student UNNT_GND
Maxim Konovalov Student UNNT_GND
Mikhail Pompushko Senior Student UNBG_TWR, UNNT_APP, UNSS_R_APP, UNWW_APP
Mikhail Shishkin Student UNNT_GND
Mikhail Shorokhov Student UNNT_GND
Nikita Razumov Student UNNT_GND
Semen Vaysman Student UNNT_TWR*
Sergey Arkasov Student 2 UNBB_TWR, UNNT_GND, UNNT_TWR*
Stas Butrim Student UNNT_GND
Stepan Seleznev Student 2 UNNT_GND
Timofei Degtyar Student 2 UNNT_TWR, UNNT_R_APP*, UNOO_TWR
Vadim Kuzmin Student UNNT_TWR*, UNNT_GND
Valerii Diakov Student 2 UNNT_R_APP*, UNNT_TWR, UNWW_TWR
vlad vartanov Student UNNT_GND
Yulia Khudic Student UNNT_GND

Аэропорты РПИ

ICAO Город Название Погода
UNBB Барнаул Барнаул UNBB 100830Z 22007MPS CAVOK M16/M20 Q1033 R24/410260 NOSIG RMK QFE752
UNBG Горно-Алтайск Горно-Алтайск
UNEE Кемерово Кемерово UNEE 100830Z 20007MPS 2400 -SN DRSN OVC030 M16/M19 Q1027 WS R23 R23/450550 NOSIG RMK QFE747
UNWW Новокузнецк Новокузнецк UNWW 100830Z 21007MPS 9000 NSC M15/M19 Q1032 R19/390138 NOSIG RMK QFE747
UNNT Новосибирск Новосибирск UNNT 100830Z 23006MPS 9000 -SN SCT009 OVC027 M17/M21 Q1030 R25/420145 R34/////// NOSIG RMK QFE762/1016
UNOO Омск Омск UNOO 100830Z 28005MPS 8000 -SHSN BKN008 BKN029CB M11/M14 Q1030 R25/390135 NOSIG RMK QFE764
UNSS Стрежевой Стрежевой
UNTT Томск Томск UNTT 100830Z 24005MPS 4200 -SHSN BKN025CB M16/M19 Q1025 R21/490345 NOSIG RMK QFE754